createdAt,value
2022-12-19T00:01:32.478Z,3.90
2022-12-19T00:04:04.782Z,4.00
2022-12-19T00:06:43.491Z,4.10
2022-12-19T00:09:13.143Z,3.50
2022-12-19T00:11:42.364Z,3.70
2022-12-19T00:14:11.715Z,3.20
2022-12-19T00:16:40.477Z,3.50
2022-12-19T00:19:10.251Z,3.50
2022-12-19T00:21:39.142Z,3.40
2022-12-19T00:24:20.065Z,3.70
2022-12-19T00:26:50.764Z,3.90
2022-12-19T00:29:19.653Z,4.00
2022-12-19T00:31:49.041Z,3.80
2022-12-19T00:34:17.810Z,4.30
2022-12-19T00:36:46.678Z,3.90
2022-12-19T00:39:15.910Z,3.90
2022-12-19T00:41:44.767Z,3.50
2022-12-19T00:44:14.840Z,3.70
2022-12-19T00:46:43.875Z,4.40
2022-12-19T00:49:21.274Z,4.10
2022-12-19T00:51:50.332Z,5.00
2022-12-19T00:54:19.385Z,4.30
2022-12-19T00:56:48.677Z,4.40
2022-12-19T00:59:18.109Z,4.00
2022-12-19T01:01:55.674Z,4.40
2022-12-19T01:04:28.824Z,5.10
2022-12-19T01:07:02.414Z,4.40
2022-12-19T01:09:32.620Z,4.90
2022-12-19T01:12:23.969Z,4.50
2022-12-19T01:14:54.699Z,4.50
2022-12-19T01:17:27.625Z,4.30
2022-12-19T01:19:57.108Z,4.90
2022-12-19T01:22:25.808Z,5.00
2022-12-19T01:24:54.794Z,4.60
2022-12-19T01:27:23.512Z,4.90
2022-12-19T01:29:53.103Z,4.50
2022-12-19T01:32:22.001Z,4.40
2022-12-19T01:34:50.897Z,5.00
2022-12-19T01:37:20.329Z,4.50
2022-12-19T01:39:49.055Z,5.40
2022-12-19T01:42:23.062Z,5.20
2022-12-19T01:45:04.999Z,5.40
2022-12-19T01:47:36.405Z,5.60
2022-12-19T01:50:05.329Z,4.80
2022-12-19T01:52:34.027Z,4.80
2022-12-19T01:55:02.980Z,5.00
2022-12-19T01:57:31.648Z,5.30
2022-12-19T02:00:04.918Z,5.10
2022-12-19T02:02:35.449Z,5.70
2022-12-19T02:05:05.404Z,4.90
2022-12-19T02:07:35.935Z,5.70
2022-12-19T02:10:04.885Z,5.60
2022-12-19T02:12:34.582Z,5.60
2022-12-19T02:15:05.065Z,4.80
2022-12-19T02:17:53.048Z,5.20
2022-12-19T02:20:29.489Z,5.10
2022-12-19T02:23:11.258Z,5.60
2022-12-19T02:26:00.529Z,5.90
2022-12-19T02:28:41.682Z,5.10
2022-12-19T02:31:19.851Z,5.50
2022-12-19T02:34:04.677Z,5.30
2022-12-19T02:36:52.959Z,4.90
2022-12-19T02:39:26.174Z,4.40
2022-12-19T02:41:57.812Z,5.30
2022-12-19T02:44:31.572Z,5.00
2022-12-19T02:47:01.612Z,4.80
2022-12-19T02:49:32.369Z,4.80
2022-12-19T02:52:33.499Z,4.50
2022-12-19T02:55:07.631Z,5.10
2022-12-19T02:57:57.217Z,4.90
2022-12-19T03:00:27.535Z,4.50
2022-12-19T03:03:00.482Z,4.70
2022-12-19T03:05:48.864Z,5.30
2022-12-19T03:08:17.553Z,4.40
2022-12-19T03:10:53.357Z,4.70
2022-12-19T03:13:25.182Z,5.50
2022-12-19T03:15:54.006Z,5.00
2022-12-19T03:18:22.794Z,5.20
2022-12-19T03:20:54.575Z,5.30
2022-12-19T03:23:23.329Z,4.40
2022-12-19T03:25:56.332Z,5.00
2022-12-19T03:28:39.094Z,5.50
2022-12-19T03:31:07.924Z,5.10
2022-12-19T03:33:38.513Z,5.20
2022-12-19T03:36:10.555Z,4.60
2022-12-19T03:38:40.760Z,4.70
2022-12-19T03:41:11.344Z,5.20
2022-12-19T03:43:41.085Z,5.10
2022-12-19T03:46:14.190Z,4.40
2022-12-19T03:48:47.392Z,4.60
2022-12-19T03:51:26.067Z,5.20
2022-12-19T03:54:04.175Z,5.40
2022-12-19T03:56:46.403Z,5.10
2022-12-19T03:59:30.748Z,5.10
2022-12-19T04:02:00.320Z,5.00
2022-12-19T04:04:30.369Z,4.80
2022-12-19T04:06:59.410Z,5.20
2022-12-19T04:09:28.775Z,4.60
2022-12-19T04:11:59.837Z,3.90
2022-12-19T04:14:31.389Z,4.60
2022-12-19T04:17:18.554Z,5.00
2022-12-19T04:20:01.212Z,6.00
2022-12-19T04:22:32.534Z,4.80
2022-12-19T04:25:03.827Z,5.10
2022-12-19T04:27:33.861Z,4.90
2022-12-19T04:30:03.876Z,5.40
2022-12-19T04:32:34.398Z,5.60
2022-12-19T04:35:03.362Z,5.70
2022-12-19T04:37:32.492Z,5.80
2022-12-19T04:40:01.249Z,5.40
2022-12-19T04:42:29.970Z,5.60
2022-12-19T04:44:58.667Z,5.10
2022-12-19T04:47:27.544Z,5.10
2022-12-19T04:49:56.319Z,5.80
2022-12-19T04:52:25.050Z,4.90
2022-12-19T04:54:53.828Z,5.20
2022-12-19T04:57:22.921Z,5.80
2022-12-19T04:59:51.721Z,6.20
2022-12-19T05:02:20.712Z,5.50
2022-12-19T05:04:49.525Z,6.60
2022-12-19T05:07:18.221Z,6.20
2022-12-19T05:09:46.926Z,5.20
2022-12-19T05:12:15.769Z,5.10
2022-12-19T05:14:44.769Z,5.10
2022-12-19T05:17:13.516Z,5.90
2022-12-19T05:19:42.224Z,5.10
2022-12-19T05:22:10.955Z,5.90
2022-12-19T05:24:39.687Z,6.50
2022-12-19T05:27:08.413Z,6.20
2022-12-19T05:29:37.146Z,5.60
2022-12-19T05:32:05.910Z,6.30
2022-12-19T05:34:34.743Z,6.60
2022-12-19T05:37:03.717Z,6.40
2022-12-19T05:39:32.438Z,5.40
2022-12-19T05:42:01.141Z,6.30
2022-12-19T05:44:29.810Z,6.60
2022-12-19T05:46:58.549Z,6.40
2022-12-19T05:49:27.733Z,5.20
2022-12-19T05:51:56.531Z,5.40
2022-12-19T05:54:25.748Z,6.10
2022-12-19T05:56:54.497Z,6.50
2022-12-19T05:59:23.244Z,6.80
2022-12-19T06:01:53.571Z,6.00
2022-12-19T06:04:22.682Z,5.80
2022-12-19T06:06:51.455Z,6.60
2022-12-19T06:09:20.781Z,6.10
2022-12-19T06:11:49.588Z,6.40
2022-12-19T06:14:18.336Z,6.80
2022-12-19T06:16:47.098Z,6.20
2022-12-19T06:19:15.842Z,6.50
2022-12-19T06:21:48.145Z,5.90
2022-12-19T06:24:17.355Z,6.00
2022-12-19T06:26:46.084Z,5.90
2022-12-19T06:29:14.878Z,6.80
2022-12-19T06:31:43.791Z,6.10
2022-12-19T06:34:27.089Z,7.20
2022-12-19T06:37:05.186Z,6.90
2022-12-19T06:39:36.725Z,6.20
2022-12-19T06:42:24.078Z,6.60
2022-12-19T06:44:55.768Z,6.90
2022-12-19T06:47:25.635Z,6.60
2022-12-19T06:49:54.406Z,6.80
2022-12-19T06:52:23.650Z,5.90
2022-12-19T06:54:52.425Z,5.70
2022-12-19T06:57:21.145Z,6.90
2022-12-19T06:59:49.890Z,6.10
2022-12-19T07:02:24.933Z,6.40
2022-12-19T07:05:12.714Z,5.90
2022-12-19T07:07:42.091Z,7.20
2022-12-19T07:10:10.934Z,5.60
2022-12-19T07:12:39.699Z,6.10
2022-12-19T07:15:08.615Z,5.90
2022-12-19T07:17:37.826Z,6.70
2022-12-19T07:20:06.867Z,6.00
2022-12-19T07:22:36.398Z,7.00
2022-12-19T07:25:06.267Z,5.90
2022-12-19T07:27:36.101Z,7.00
2022-12-19T07:30:06.495Z,6.30
2022-12-19T07:32:35.228Z,6.00
2022-12-19T07:35:04.238Z,6.70
2022-12-19T07:37:33.198Z,6.10
2022-12-19T07:40:02.129Z,5.80
2022-12-19T07:42:32.757Z,6.10
2022-12-19T07:45:01.805Z,6.30
2022-12-19T07:47:30.566Z,6.70
2022-12-19T07:49:59.553Z,6.50
2022-12-19T07:52:28.893Z,6.20
2022-12-19T07:54:57.675Z,7.60
2022-12-19T07:57:26.366Z,7.00
2022-12-19T07:59:55.081Z,7.40
2022-12-19T08:02:23.996Z,6.60
2022-12-19T08:04:53.648Z,7.60
2022-12-19T08:07:22.422Z,6.80
2022-12-19T08:09:51.309Z,6.80
2022-12-19T08:12:20.178Z,7.10
2022-12-19T08:14:51.602Z,7.50
2022-12-19T08:17:22.887Z,6.50
2022-12-19T08:19:51.814Z,7.10
2022-12-19T08:22:20.514Z,6.90
2022-12-19T08:24:49.197Z,7.80
2022-12-19T08:27:17.952Z,8.00
2022-12-19T08:29:47.500Z,7.30
2022-12-19T08:32:20.910Z,9.90
2022-12-19T08:34:50.717Z,11.70
2022-12-19T08:37:19.428Z,13.10
2022-12-19T08:39:48.264Z,14.40
2022-12-19T08:42:17.008Z,14.20
2022-12-19T08:44:45.870Z,13.50
2022-12-19T08:47:14.999Z,13.90
2022-12-19T08:49:43.706Z,13.20
2022-12-19T08:52:12.496Z,14.10
2022-12-19T08:54:41.249Z,13.50
2022-12-19T08:57:09.976Z,13.30
2022-12-19T08:59:38.753Z,13.50
2022-12-19T09:02:09.706Z,13.60
2022-12-19T09:05:41.445Z,13.70
2022-12-19T09:07:27.337Z,13.50
2022-12-19T09:09:56.100Z,13.50
2022-12-19T09:12:24.893Z,13.30
2022-12-19T09:14:53.624Z,14.10
2022-12-19T09:17:22.867Z,12.70
2022-12-19T09:19:51.713Z,13.30
2022-12-19T09:22:21.072Z,12.70
2022-12-19T09:24:56.717Z,12.60
2022-12-19T09:27:25.425Z,13.10
2022-12-19T09:29:54.315Z,13.40
2022-12-19T09:32:23.021Z,12.90
2022-12-19T09:34:51.947Z,13.20
2022-12-19T09:37:20.667Z,12.60
2022-12-19T09:39:49.524Z,12.80
2022-12-19T09:42:41.228Z,13.10
2022-12-19T09:45:22.254Z,12.30
2022-12-19T09:48:01.595Z,12.90
2022-12-19T09:50:33.589Z,13.20
2022-12-19T09:53:21.370Z,13.10
2022-12-19T09:55:52.129Z,13.20
2022-12-19T09:58:27.257Z,12.20
2022-12-19T10:01:00.051Z,12.90
2022-12-19T10:03:38.753Z,13.20
2022-12-19T10:07:12.468Z,13.10
2022-12-19T10:10:11.751Z,13.40
2022-12-19T10:12:42.764Z,13.70
2022-12-19T10:15:11.923Z,13.40
2022-12-19T10:17:57.274Z,13.10
2022-12-19T10:20:37.108Z,12.90
2022-12-19T10:23:21.343Z,12.70
2022-12-19T10:25:50.852Z,13.40
2022-12-19T10:28:34.778Z,12.80
2022-12-19T10:31:18.909Z,12.90
2022-12-19T10:33:53.979Z,12.60
2022-12-19T10:36:42.052Z,12.40
2022-12-19T10:39:16.606Z,12.20
2022-12-19T10:41:46.963Z,12.30
2022-12-19T10:44:15.946Z,11.90
2022-12-19T10:46:46.256Z,12.00
2022-12-19T10:49:18.110Z,12.90
2022-12-19T10:51:56.186Z,12.20
2022-12-19T10:54:33.400Z,11.80
2022-12-19T10:57:18.649Z,12.00
2022-12-19T11:00:01.103Z,12.70
2022-12-19T11:02:42.174Z,11.10
2022-12-19T11:05:27.196Z,12.90
2022-12-19T11:08:00.575Z,11.90
2022-12-19T11:12:36.912Z,10.90
2022-12-19T11:18:05.748Z,12.00
2022-12-19T11:23:20.455Z,10.70
2022-12-19T11:29:17.392Z,10.40
2022-12-19T11:29:25.414Z,11.10
2022-12-19T11:30:37.377Z,11.20
2022-12-19T11:30:44.126Z,11.50
2022-12-19T11:33:55.958Z,10.20
2022-12-19T11:36:35.184Z,11.00
2022-12-19T11:39:05.486Z,10.20
2022-12-19T11:41:38.919Z,10.80
2022-12-19T11:44:07.658Z,11.10
2022-12-19T11:46:49.729Z,11.70
2022-12-19T11:49:18.438Z,10.70
2022-12-19T11:51:50.249Z,11.00
2022-12-19T11:54:23.798Z,10.90
2022-12-19T11:56:52.604Z,10.30
2022-12-19T11:59:30.733Z,10.50
2022-12-19T12:02:07.141Z,10.60
2022-12-19T12:04:51.389Z,10.50
2022-12-19T12:07:32.502Z,10.40
2022-12-19T12:14:27.942Z,9.60
2022-12-19T12:23:19.134Z,9.80
2022-12-19T12:24:49.813Z,10.10
2022-12-19T12:31:05.471Z,10.40
2022-12-19T12:31:09.001Z,10.00
2022-12-19T12:31:11.208Z,9.30
2022-12-19T12:31:47.732Z,9.40
2022-12-19T12:35:30.457Z,8.40
2022-12-19T12:40:11.261Z,6.90
2022-12-19T12:43:02.551Z,8.50
2022-12-19T12:45:32.200Z,7.50
2022-12-19T12:48:01.022Z,7.60
2022-12-19T12:50:30.705Z,8.20
2022-12-19T12:53:02.664Z,7.00
2022-12-19T12:55:40.180Z,8.30
2022-12-19T12:58:35.455Z,7.00
2022-12-19T13:01:27.704Z,6.30
2022-12-19T13:03:58.450Z,7.60
2022-12-19T13:06:32.807Z,7.00
2022-12-19T13:09:16.663Z,6.50
2022-12-19T13:12:05.759Z,5.90
2022-12-19T13:14:34.533Z,7.80
2022-12-19T13:17:07.229Z,7.00
2022-12-19T13:19:36.019Z,6.30
2022-12-19T13:22:04.755Z,6.70
2022-12-19T13:24:39.859Z,6.00
2022-12-19T13:27:20.738Z,6.10
2022-12-19T13:30:08.564Z,5.50
2022-12-19T13:32:40.398Z,6.40
2022-12-19T13:36:15.490Z,5.50
2022-12-19T13:39:47.933Z,6.20
2022-12-19T13:41:43.962Z,6.40
2022-12-19T13:44:12.944Z,5.70
2022-12-19T13:46:42.672Z,5.80
2022-12-19T13:49:19.989Z,6.10
2022-12-19T13:51:50.464Z,6.10
2022-12-19T13:54:24.075Z,5.80
2022-12-19T13:56:53.385Z,6.20
2022-12-19T13:59:24.251Z,6.00
2022-12-19T14:01:53.765Z,5.90
2022-12-19T14:04:27.020Z,6.60
2022-12-19T14:07:00.745Z,6.00
2022-12-19T14:11:02.068Z,6.00
2022-12-19T14:13:57.124Z,5.90
2022-12-19T14:15:38.803Z,6.70
2022-12-19T14:18:42.309Z,5.60
2022-12-19T14:22:07.036Z,6.30
2022-12-19T14:24:20.251Z,7.20
2022-12-19T14:28:16.900Z,6.60
2022-12-19T14:30:29.828Z,6.20
2022-12-19T14:33:39.438Z,6.00
2022-12-19T14:36:08.613Z,6.70
2022-12-19T14:39:27.629Z,7.00
2022-12-19T14:41:46.681Z,6.50
2022-12-19T14:54:03.377Z,6.30
2022-12-19T14:54:03.914Z,6.40
2022-12-19T14:54:09.145Z,6.40
2022-12-19T14:54:48.290Z,6.80
2022-12-19T14:56:03.714Z,6.20
2022-12-19T14:58:55.442Z,6.50
2022-12-19T15:01:24.364Z,6.00
2022-12-19T15:04:51.788Z,6.70
2022-12-19T15:07:10.097Z,6.20
2022-12-19T15:11:05.452Z,6.00
2022-12-19T15:14:49.588Z,7.00
2022-12-19T15:15:58.891Z,6.50
2022-12-19T15:18:37.212Z,8.00
2022-12-19T15:21:08.170Z,5.90
2022-12-19T15:23:36.925Z,6.30
2022-12-19T15:26:08.449Z,7.30
2022-12-19T15:28:39.550Z,6.90
2022-12-19T15:31:17.634Z,7.00
2022-12-19T15:34:23.318Z,6.80
2022-12-19T15:36:35.334Z,3.60
2022-12-19T15:39:04.469Z,8.40
2022-12-19T15:41:33.276Z,6.80
2022-12-19T15:44:07.326Z,7.10
2022-12-19T15:46:37.922Z,5.10
2022-12-19T15:49:19.984Z,7.60
2022-12-19T15:51:49.382Z,6.40
2022-12-19T15:57:13.817Z,7.60
2022-12-19T15:59:44.123Z,7.80
2022-12-19T16:02:21.942Z,7.30
2022-12-19T16:04:54.482Z,6.70
2022-12-19T16:07:25.737Z,7.20
2022-12-19T16:09:55.487Z,8.10
2022-12-19T16:12:27.623Z,7.90
2022-12-19T16:14:58.043Z,6.90
2022-12-19T16:17:29.130Z,6.30
2022-12-19T16:19:58.037Z,6.70
2022-12-19T16:22:28.750Z,7.00
2022-12-19T16:24:57.484Z,7.80
2022-12-19T16:27:30.554Z,7.60
2022-12-19T16:30:00.902Z,6.60
2022-12-19T16:32:29.799Z,7.50
2022-12-19T16:34:58.491Z,7.70
2022-12-19T16:37:32.072Z,7.50
2022-12-19T16:40:02.114Z,8.30
2022-12-19T16:42:32.139Z,6.90
2022-12-19T16:45:00.896Z,7.80
2022-12-19T16:47:29.878Z,7.60
2022-12-19T16:49:58.643Z,7.40
2022-12-19T16:52:27.379Z,7.10
2022-12-19T16:54:56.125Z,8.40
2022-12-19T16:57:25.113Z,7.90
2022-12-19T16:59:54.149Z,8.10
2022-12-19T17:02:23.001Z,6.80
2022-12-19T17:04:54.248Z,7.10
2022-12-19T17:07:23.336Z,8.80
2022-12-19T17:09:52.192Z,8.00
2022-12-19T17:12:21.018Z,7.50
2022-12-19T17:14:49.757Z,8.10
2022-12-19T17:17:18.578Z,7.30
2022-12-19T17:19:47.313Z,8.60
2022-12-19T17:22:17.355Z,7.90
2022-12-19T17:24:46.823Z,7.80
2022-12-19T17:27:17.442Z,8.30
2022-12-19T17:29:47.303Z,7.50
2022-12-19T17:32:23.302Z,7.10
2022-12-19T17:34:53.456Z,8.10
2022-12-19T17:37:22.374Z,7.90
2022-12-19T17:39:51.163Z,7.30
2022-12-19T17:42:24.388Z,7.20
2022-12-19T17:44:53.179Z,6.80
2022-12-19T17:47:22.329Z,7.80
2022-12-19T17:49:51.107Z,6.70
2022-12-19T17:52:20.081Z,7.60
2022-12-19T17:54:48.821Z,7.40
2022-12-19T17:57:18.046Z,7.10
2022-12-19T17:59:47.015Z,8.10
2022-12-19T18:02:21.245Z,6.90
2022-12-19T18:04:51.138Z,7.00
2022-12-19T18:07:19.931Z,8.00
2022-12-19T18:09:48.716Z,6.90
2022-12-19T18:12:17.449Z,7.20
2022-12-19T18:14:46.437Z,7.10
2022-12-19T18:17:25.440Z,8.20
2022-12-19T18:19:54.257Z,7.20
2022-12-19T18:22:23.112Z,7.40
2022-12-19T18:24:52.176Z,7.40
2022-12-19T18:27:20.958Z,7.20
2022-12-19T18:29:49.856Z,7.60
2022-12-19T18:32:19.397Z,7.30
2022-12-19T18:34:48.274Z,7.60
2022-12-19T18:37:17.232Z,7.70
2022-12-19T18:39:46.059Z,7.90
2022-12-19T18:42:23.828Z,6.60
2022-12-19T18:44:52.863Z,7.80
2022-12-19T18:47:23.288Z,7.40
2022-12-19T18:49:52.171Z,7.80
2022-12-19T18:52:21.583Z,7.50
2022-12-19T18:54:50.319Z,7.40
2022-12-19T18:57:19.151Z,7.50
2022-12-19T18:59:50.112Z,8.00
2022-12-19T19:02:25.042Z,7.00
2022-12-19T19:04:55.789Z,7.70
2022-12-19T19:07:26.199Z,8.30
2022-12-19T19:09:54.994Z,6.60
2022-12-19T19:12:23.747Z,8.50
2022-12-19T19:14:52.925Z,7.00
2022-12-19T19:17:28.244Z,7.40
2022-12-19T19:19:57.000Z,7.30
2022-12-19T19:22:25.789Z,7.10
2022-12-19T19:24:54.576Z,8.70
2022-12-19T19:27:23.389Z,8.00
2022-12-19T19:29:53.461Z,8.40
2022-12-19T19:32:22.405Z,7.90
2022-12-19T19:34:51.584Z,7.50
2022-12-19T19:37:21.040Z,8.80
2022-12-19T19:39:49.776Z,8.00
2022-12-19T19:42:19.071Z,7.70
2022-12-19T19:44:47.857Z,8.70
2022-12-19T19:47:16.684Z,7.70
2022-12-19T19:49:45.478Z,7.60
2022-12-19T19:52:14.258Z,7.60
2022-12-19T19:54:43.033Z,7.40
2022-12-19T19:57:11.809Z,7.70
2022-12-19T19:59:40.798Z,8.20
2022-12-19T20:02:11.476Z,8.30
2022-12-19T20:04:40.970Z,7.70
2022-12-19T20:07:09.855Z,7.70
2022-12-19T20:09:38.581Z,8.50
2022-12-19T20:12:07.447Z,7.30
2022-12-19T20:14:36.419Z,6.60
2022-12-19T20:17:05.290Z,7.80
2022-12-19T20:19:34.069Z,7.80
2022-12-19T20:22:02.964Z,7.20
2022-12-19T20:24:31.776Z,7.40
2022-12-19T20:27:00.561Z,8.10
2022-12-19T20:29:29.451Z,6.20
2022-12-19T20:31:58.329Z,7.30
2022-12-19T20:34:27.161Z,7.50
2022-12-19T20:36:56.011Z,7.50
2022-12-19T20:39:25.688Z,7.60
2022-12-19T20:41:54.502Z,7.60
2022-12-19T20:44:24.716Z,7.90
2022-12-19T20:46:53.855Z,7.40
2022-12-19T20:49:23.163Z,8.10
2022-12-19T20:51:51.933Z,8.00
2022-12-19T20:54:20.876Z,8.80
2022-12-19T20:56:49.614Z,7.90
2022-12-19T20:59:19.295Z,8.80
2022-12-19T21:01:48.133Z,7.40
2022-12-19T21:04:17.451Z,8.50
2022-12-19T21:06:46.482Z,7.80
2022-12-19T21:09:15.274Z,9.20
2022-12-19T21:11:43.990Z,7.70
2022-12-19T21:14:12.866Z,7.60
2022-12-19T21:16:41.700Z,8.30
2022-12-19T21:19:10.546Z,8.50
2022-12-19T21:21:39.352Z,8.10
2022-12-19T21:24:08.155Z,9.40
2022-12-19T21:26:36.884Z,8.40
2022-12-19T21:29:05.841Z,7.20
2022-12-19T21:31:34.745Z,8.10
2022-12-19T21:34:03.671Z,8.50
2022-12-19T21:36:32.571Z,7.70
2022-12-19T21:39:02.366Z,8.70
2022-12-19T21:41:32.048Z,8.00
2022-12-19T21:44:00.803Z,9.40
2022-12-19T21:46:31.115Z,9.90
2022-12-19T21:49:00.586Z,8.90
2022-12-19T21:51:31.171Z,9.40
2022-12-19T21:54:01.123Z,8.20
2022-12-19T21:56:31.183Z,9.60
2022-12-19T21:59:01.869Z,9.70
2022-12-19T22:01:30.928Z,9.20
2022-12-19T22:04:00.862Z,9.90
2022-12-19T22:06:31.848Z,9.00
2022-12-19T22:09:01.354Z,8.60
2022-12-19T22:11:30.581Z,8.00
2022-12-19T22:14:00.287Z,9.10
2022-12-19T22:16:29.313Z,9.50
2022-12-19T22:18:59.250Z,8.50
2022-12-19T22:21:28.440Z,8.30
2022-12-19T22:23:57.827Z,9.00
2022-12-19T22:26:27.612Z,8.50
2022-12-19T22:28:57.179Z,7.90
2022-12-19T22:31:27.143Z,7.90
2022-12-19T22:34:00.246Z,8.40
2022-12-19T22:36:29.940Z,8.30
2022-12-19T22:38:59.612Z,8.50
2022-12-19T22:41:28.639Z,8.30
2022-12-19T22:43:57.480Z,8.50
2022-12-19T22:46:27.719Z,9.80
2022-12-19T22:48:57.737Z,8.80
2022-12-19T22:51:27.170Z,9.30
2022-12-19T22:53:56.478Z,8.00
2022-12-19T22:56:26.762Z,9.00
2022-12-19T22:58:56.618Z,8.80
2022-12-19T23:01:36.953Z,9.40
2022-12-19T23:04:07.567Z,8.00
2022-12-19T23:06:37.082Z,8.40
2022-12-19T23:09:07.044Z,8.50
2022-12-19T23:11:36.754Z,8.80
2022-12-19T23:14:07.783Z,8.20
2022-12-19T23:16:36.610Z,8.00
2022-12-19T23:19:05.453Z,9.20
2022-12-19T23:21:34.118Z,9.00
2022-12-19T23:24:03.242Z,8.80
2022-12-19T23:26:33.506Z,8.50
2022-12-19T23:29:03.956Z,7.90
2022-12-19T23:31:32.795Z,8.90
2022-12-19T23:34:01.982Z,8.80
2022-12-19T23:37:10.268Z,9.80
2022-12-19T23:39:19.870Z,7.90
2022-12-19T23:41:48.710Z,7.20
2022-12-19T23:44:17.594Z,9.40
2022-12-19T23:46:46.286Z,8.60
2022-12-19T23:49:15.766Z,9.30
2022-12-19T23:51:44.507Z,7.90
2022-12-19T23:54:13.320Z,9.40
2022-12-19T23:56:42.055Z,8.90
2022-12-19T23:59:10.771Z,8.70
